createdAt,value
2018-11-25T00:01:24.979Z,94.97
2018-11-25T00:03:55.162Z,111.73
2018-11-25T00:06:25.079Z,102.80
2018-11-25T00:08:55.235Z,98.87
2018-11-25T00:11:25.105Z,91.37
2018-11-25T00:13:55.072Z,98.87
2018-11-25T00:16:24.956Z,102.90
2018-11-25T00:18:55.128Z,88.77
2018-11-25T00:21:25.013Z,95.37
2018-11-25T00:23:54.877Z,88.00
2018-11-25T00:26:25.280Z,94.97
2018-11-25T00:28:55.199Z,100.07
2018-11-25T00:31:25.049Z,103.73
2018-11-25T00:33:55.336Z,99.47
2018-11-25T00:36:25.766Z,105.37
2018-11-25T00:38:55.677Z,115.27
2018-11-25T00:41:25.904Z,116.43
2018-11-25T00:43:55.727Z,99.33
2018-11-25T00:46:25.590Z,101.43
2018-11-25T00:48:55.478Z,107.37
2018-11-25T00:51:25.319Z,112.13
2018-11-25T00:53:55.197Z,111.50
2018-11-25T00:56:25.115Z,112.27
2018-11-25T00:58:54.953Z,104.53
2018-11-25T01:01:24.833Z,102.47
2018-11-25T01:03:54.719Z,100.13
2018-11-25T01:06:24.575Z,99.33
2018-11-25T01:08:54.424Z,122.53
2018-11-25T01:11:24.793Z,109.00
2018-11-25T01:13:54.706Z,93.07
2018-11-25T01:16:24.630Z,105.87
2018-11-25T01:18:54.943Z,112.07
2018-11-25T01:21:25.184Z,105.33
2018-11-25T01:23:55.006Z,104.43
2018-11-25T01:26:24.986Z,103.83
2018-11-25T01:28:54.973Z,105.33
2018-11-25T01:31:24.806Z,105.00
2018-11-25T01:33:54.774Z,112.03
2018-11-25T01:36:24.720Z,103.83
2018-11-25T01:38:54.613Z,108.07
2018-11-25T01:41:24.484Z,116.13
2018-11-25T01:43:54.412Z,105.63
2018-11-25T01:46:24.208Z,105.00
2018-11-25T01:48:54.039Z,106.60
2018-11-25T01:51:24.023Z,99.47
2018-11-25T01:53:53.831Z,100.67
2018-11-25T01:56:23.973Z,116.87
2018-11-25T01:58:53.942Z,147.73
2018-11-25T02:01:23.810Z,113.73
2018-11-25T02:03:54.376Z,97.33
2018-11-25T02:06:24.586Z,93.60
2018-11-25T02:08:54.423Z,105.57
2018-11-25T02:11:24.335Z,105.10
2018-11-25T02:13:54.543Z,106.70
2018-11-25T02:16:24.423Z,92.53
2018-11-25T02:18:54.282Z,105.17
2018-11-25T02:21:24.676Z,102.93
2018-11-25T02:23:55.093Z,101.37
2018-11-25T02:26:24.939Z,103.47
2018-11-25T02:28:54.886Z,98.03
2018-11-25T02:31:25.006Z,92.90
2018-11-25T02:33:54.808Z,95.63
2018-11-25T02:36:43.879Z,95.67
2018-11-25T02:39:13.802Z,97.10
2018-11-25T02:41:43.661Z,103.17
2018-11-25T02:44:13.965Z,96.90
2018-11-25T02:46:44.132Z,95.87
2018-11-25T02:49:14.214Z,105.17
2018-11-25T02:51:44.478Z,85.97
2018-11-25T02:54:15.079Z,84.93
2018-11-25T02:56:45.334Z,96.33
2018-11-25T02:59:15.883Z,107.87
2018-11-25T03:01:46.173Z,98.07
2018-11-25T03:04:16.126Z,91.87
2018-11-25T03:06:45.892Z,96.17
2018-11-25T03:09:15.802Z,110.40
2018-11-25T03:11:45.722Z,93.87
2018-11-25T03:14:15.931Z,100.63
2018-11-25T03:16:45.794Z,91.93
2018-11-25T03:19:15.609Z,100.43
2018-11-25T03:21:45.718Z,90.80
2018-11-25T03:24:15.684Z,84.23
2018-11-25T03:26:45.762Z,88.67
2018-11-25T03:29:15.672Z,85.93
2018-11-25T03:31:45.540Z,95.47
2018-11-25T03:34:15.671Z,92.07
2018-11-25T03:37:04.496Z,93.50
2018-11-25T03:39:34.374Z,78.80
2018-11-25T03:42:04.201Z,97.00
2018-11-25T03:44:34.434Z,91.47
2018-11-25T03:47:04.386Z,87.83
2018-11-25T03:49:34.132Z,93.20
2018-11-25T03:52:04.778Z,85.00
2018-11-25T03:54:35.003Z,86.67
2018-11-25T03:57:04.883Z,86.60
2018-11-25T03:59:35.051Z,93.60
2018-11-25T04:02:04.840Z,86.20
2018-11-25T04:04:34.716Z,78.13
2018-11-25T04:07:04.540Z,88.07
2018-11-25T04:09:34.807Z,80.27
2018-11-25T04:12:04.662Z,90.13
2018-11-25T04:14:34.525Z,93.43
2018-11-25T04:17:04.465Z,86.67
2018-11-25T04:19:34.291Z,81.77
2018-11-25T04:22:22.964Z,75.27
2018-11-25T04:24:52.799Z,97.77
2018-11-25T04:27:22.632Z,87.47
2018-11-25T04:29:52.567Z,90.83
2018-11-25T04:32:22.468Z,89.47
2018-11-25T04:34:52.746Z,91.70
2018-11-25T04:37:22.624Z,103.13
2018-11-25T04:39:52.831Z,85.17
2018-11-25T04:42:22.710Z,84.40
2018-11-25T04:44:52.933Z,97.37
2018-11-25T04:47:41.875Z,94.63
2018-11-25T04:50:30.731Z,73.27
2018-11-25T04:53:00.627Z,94.40
2018-11-25T04:55:30.793Z,100.90
2018-11-25T04:58:00.692Z,85.83
2018-11-25T05:00:30.591Z,90.53
2018-11-25T05:03:00.735Z,86.13
2018-11-25T05:05:30.575Z,83.57
2018-11-25T05:08:01.136Z,86.60
2018-11-25T05:10:30.995Z,90.57
2018-11-25T05:13:01.255Z,88.23
2018-11-25T05:15:31.077Z,84.70
2018-11-25T05:18:01.347Z,76.50
2018-11-25T05:20:31.282Z,95.67
2018-11-25T05:23:01.115Z,80.40
2018-11-25T05:25:30.968Z,88.20
2018-11-25T05:28:01.390Z,81.53
2018-11-25T05:30:31.188Z,84.30
2018-11-25T05:33:01.571Z,85.03
2018-11-25T05:35:31.374Z,90.17
2018-11-25T05:38:01.530Z,86.17
2018-11-25T05:40:31.374Z,85.20
2018-11-25T05:43:01.194Z,86.27
2018-11-25T05:45:31.081Z,87.97
2018-11-25T05:48:01.841Z,92.13
2018-11-25T05:50:31.673Z,78.63
2018-11-25T05:53:02.344Z,79.80
2018-11-25T05:55:51.088Z,79.87
2018-11-25T05:58:21.046Z,77.10
2018-11-25T06:00:50.960Z,82.20
2018-11-25T06:03:21.143Z,76.23
2018-11-25T06:05:50.968Z,83.33
2018-11-25T06:08:20.783Z,79.40
2018-11-25T06:10:50.636Z,82.37
2018-11-25T06:13:20.928Z,79.27
2018-11-25T06:15:50.783Z,94.43
2018-11-25T06:18:21.065Z,74.67
2018-11-25T06:20:51.132Z,88.30
2018-11-25T06:23:21.094Z,86.90
2018-11-25T06:25:50.910Z,84.40
2018-11-25T06:28:20.741Z,81.03
2018-11-25T06:30:51.103Z,78.43
2018-11-25T06:33:20.985Z,78.60
2018-11-25T06:35:50.867Z,90.17
2018-11-25T06:38:20.740Z,79.13
2018-11-25T06:40:50.619Z,63.40
2018-11-25T06:43:20.787Z,74.53
2018-11-25T06:45:50.717Z,85.27
2018-11-25T06:48:20.573Z,83.87
2018-11-25T06:50:57.757Z,88.53
2018-11-25T06:53:27.665Z,77.73
2018-11-25T06:55:58.018Z,87.83
2018-11-25T06:58:28.194Z,73.63
2018-11-25T07:00:58.537Z,82.50
2018-11-25T07:03:28.453Z,77.27
2018-11-25T07:05:58.310Z,78.03
2018-11-25T07:08:28.164Z,78.53
2018-11-25T07:11:16.978Z,86.03
2018-11-25T07:14:05.799Z,90.77
2018-11-25T07:16:35.718Z,81.40
2018-11-25T07:19:05.717Z,85.83
2018-11-25T07:21:35.972Z,87.40
2018-11-25T07:24:05.794Z,92.93
2018-11-25T07:26:36.421Z,91.63
2018-11-25T07:29:06.546Z,92.70
2018-11-25T07:31:36.358Z,88.80
2018-11-25T07:34:06.266Z,92.50
2018-11-25T07:36:36.437Z,92.43
2018-11-25T07:39:26.322Z,88.57
2018-11-25T07:41:56.194Z,96.97
2018-11-25T07:44:25.999Z,86.00
2018-11-25T07:46:56.339Z,78.03
2018-11-25T07:49:29.938Z,90.00
2018-11-25T07:51:59.908Z,80.23
2018-11-25T07:54:30.117Z,79.77
2018-11-25T07:57:00.070Z,79.37
2018-11-25T07:59:48.633Z,76.13
2018-11-25T08:02:18.466Z,94.47
2018-11-25T08:04:48.774Z,87.07
2018-11-25T08:07:37.373Z,90.17
2018-11-25T08:10:28.874Z,77.93
2018-11-25T08:12:58.707Z,91.13
2018-11-25T08:15:28.584Z,88.90
2018-11-25T08:17:59.422Z,81.83
2018-11-25T08:20:29.335Z,80.70
2018-11-25T08:22:59.515Z,82.10
2018-11-25T08:25:29.449Z,76.97
2018-11-25T08:27:59.383Z,81.07
2018-11-25T08:30:48.123Z,86.10
2018-11-25T08:33:36.783Z,84.00
2018-11-25T08:36:08.417Z,85.87
2018-11-25T08:38:38.238Z,95.77
2018-11-25T08:41:08.499Z,90.13
2018-11-25T08:43:38.464Z,89.63
2018-11-25T08:46:08.271Z,85.67
2018-11-25T08:48:38.150Z,91.73
2018-11-25T08:51:08.664Z,91.50
2018-11-25T08:53:38.548Z,87.97
2018-11-25T08:56:08.868Z,86.47
2018-11-25T08:58:38.765Z,93.23
2018-11-25T09:01:08.593Z,98.87
2018-11-25T09:03:39.904Z,95.87
2018-11-25T09:06:10.058Z,85.20
2018-11-25T09:08:39.955Z,85.83
2018-11-25T09:11:09.784Z,82.17
2018-11-25T09:13:40.797Z,84.83
2018-11-25T09:16:10.657Z,84.70
2018-11-25T09:18:40.598Z,81.70
2018-11-25T09:21:10.521Z,79.13
2018-11-25T09:23:40.859Z,82.77
2018-11-25T09:26:10.747Z,80.03
2018-11-25T09:28:40.722Z,86.30
2018-11-25T09:31:10.591Z,82.67
2018-11-25T09:33:40.528Z,91.23
2018-11-25T09:36:10.380Z,90.40
2018-11-25T09:38:40.514Z,78.70
2018-11-25T09:41:29.460Z,98.93
2018-11-25T09:43:59.373Z,76.00
2018-11-25T09:46:29.322Z,85.97
2018-11-25T09:48:59.225Z,86.10
2018-11-25T09:51:29.161Z,87.93
2018-11-25T09:53:59.039Z,89.33
2018-11-25T09:56:29.066Z,101.13
2018-11-25T09:58:59.253Z,97.33
2018-11-25T10:01:29.124Z,97.30
2018-11-25T10:03:59.328Z,90.63
2018-11-25T10:06:29.202Z,91.50
2018-11-25T10:08:59.690Z,92.00
2018-11-25T10:11:50.420Z,95.77
2018-11-25T10:14:39.159Z,89.20
2018-11-25T10:17:09.076Z,101.10
2018-11-25T10:19:39.165Z,104.23
2018-11-25T10:22:09.101Z,107.30
2018-11-25T10:24:39.528Z,103.93
2018-11-25T10:27:09.410Z,101.63
2018-11-25T10:29:39.337Z,114.67
2018-11-25T10:32:09.445Z,111.70
2018-11-25T10:34:39.757Z,118.47
2018-11-25T10:37:09.617Z,129.23
2018-11-25T10:39:39.488Z,117.27
2018-11-25T10:42:09.748Z,113.93
2018-11-25T10:44:40.280Z,110.73
2018-11-25T10:47:10.561Z,109.20
2018-11-25T10:49:40.505Z,115.00
2018-11-25T10:52:10.944Z,104.07
2018-11-25T10:54:40.870Z,98.40
2018-11-25T10:57:11.343Z,102.00
2018-11-25T10:59:41.574Z,104.67
2018-11-25T11:02:30.131Z,85.23
2018-11-25T11:05:18.664Z,101.97
2018-11-25T11:07:48.872Z,103.37
2018-11-25T11:10:18.854Z,97.37
2018-11-25T11:12:49.708Z,111.20
2018-11-25T11:15:38.198Z,98.33
2018-11-25T11:18:08.793Z,99.83
2018-11-25T11:20:38.679Z,92.17
2018-11-25T11:23:27.705Z,97.23
2018-11-25T11:25:57.583Z,98.90
2018-11-25T11:28:27.966Z,86.70
2018-11-25T11:30:57.865Z,98.53
2018-11-25T11:33:27.704Z,95.03
2018-11-25T11:35:57.569Z,89.63
2018-11-25T11:38:27.425Z,91.20
2018-11-25T11:40:57.416Z,83.53
2018-11-25T11:43:27.285Z,96.73
2018-11-25T11:45:57.218Z,93.37
2018-11-25T11:48:27.180Z,84.50
2018-11-25T11:50:57.144Z,88.60
2018-11-25T11:53:27.278Z,89.33
2018-11-25T11:55:57.183Z,104.67
2018-11-25T11:58:27.054Z,111.43
2018-11-25T12:00:57.159Z,108.47
2018-11-25T12:03:27.089Z,103.27
2018-11-25T12:05:57.866Z,106.37
2018-11-25T12:08:27.768Z,97.80
2018-11-25T12:10:57.643Z,98.30
2018-11-25T12:13:27.470Z,97.17
2018-11-25T12:15:58.249Z,104.93
2018-11-25T12:18:29.110Z,98.93
2018-11-25T12:20:58.953Z,100.63
2018-11-25T12:23:28.740Z,99.70
2018-11-25T12:25:58.641Z,92.60
2018-11-25T12:28:28.492Z,103.53
2018-11-25T12:30:58.671Z,88.83
2018-11-25T12:33:28.924Z,102.87
2018-11-25T12:35:58.916Z,106.30
2018-11-25T12:38:28.724Z,104.17
2018-11-25T12:40:58.726Z,118.33
2018-11-25T12:43:28.643Z,108.00
2018-11-25T12:45:58.537Z,108.97
2018-11-25T12:48:28.800Z,99.57
2018-11-25T12:50:58.717Z,96.90
2018-11-25T12:53:28.637Z,92.87
2018-11-25T12:55:58.555Z,104.37
2018-11-25T12:58:28.833Z,87.37
2018-11-25T13:00:58.701Z,98.03
2018-11-25T13:03:28.820Z,128.03
2018-11-25T13:05:58.976Z,95.27
2018-11-25T13:08:29.364Z,95.90
2018-11-25T13:10:59.554Z,89.00
2018-11-25T13:13:47.947Z,89.00
2018-11-25T13:16:17.894Z,93.90
2018-11-25T13:18:47.704Z,97.27
2018-11-25T13:21:17.646Z,91.17
2018-11-25T13:23:47.504Z,95.90
2018-11-25T13:26:17.814Z,94.43
2018-11-25T13:28:48.041Z,89.23
2018-11-25T13:31:17.995Z,91.40
2018-11-25T13:33:47.838Z,99.90
2018-11-25T13:36:17.745Z,92.93
2018-11-25T13:38:48.104Z,92.30
2018-11-25T13:41:18.000Z,103.73
2018-11-25T13:43:47.845Z,101.33
2018-11-25T13:46:17.944Z,93.30
2018-11-25T13:48:47.848Z,86.93
2018-11-25T13:51:18.298Z,95.00
2018-11-25T13:53:48.159Z,94.83
2018-11-25T13:56:18.010Z,101.67
2018-11-25T13:58:48.017Z,92.63
2018-11-25T14:01:17.843Z,99.30
2018-11-25T14:03:48.087Z,100.80
2018-11-25T14:06:18.058Z,96.43
2018-11-25T14:08:50.659Z,98.63
2018-11-25T14:11:20.595Z,94.70
2018-11-25T14:13:50.402Z,87.67
2018-11-25T14:16:21.894Z,94.73
2018-11-25T14:18:51.730Z,110.27
2018-11-25T14:21:21.971Z,113.77
2018-11-25T14:23:51.940Z,103.57
2018-11-25T14:26:59.574Z,104.90
2018-11-25T14:29:48.576Z,111.57
2018-11-25T14:32:18.468Z,90.27
2018-11-25T14:35:06.883Z,91.53
2018-11-25T14:37:37.147Z,103.50
2018-11-25T14:40:09.337Z,97.83
2018-11-25T14:42:39.552Z,97.47
2018-11-25T14:45:13.586Z,109.40
2018-11-25T14:47:43.707Z,90.80
2018-11-25T14:50:32.589Z,109.80
2018-11-25T14:53:02.984Z,114.13
2018-11-25T14:55:33.130Z,103.23
2018-11-25T14:58:03.009Z,108.77
2018-11-25T15:00:32.982Z,103.10
2018-11-25T15:03:04.246Z,112.67
2018-11-25T15:06:03.254Z,123.60
2018-11-25T15:08:33.223Z,110.40
2018-11-25T15:11:03.696Z,125.50
2018-11-25T15:13:33.589Z,114.03
2018-11-25T15:16:04.734Z,128.37
2018-11-25T15:18:34.634Z,110.20
2018-11-25T15:21:04.592Z,110.07
2018-11-25T15:23:34.552Z,128.03
2018-11-25T15:26:04.414Z,114.40
2018-11-25T15:28:34.342Z,121.87
2018-11-25T15:31:04.353Z,133.80
2018-11-25T15:33:34.275Z,130.40
2018-11-25T15:36:23.072Z,133.67
2018-11-25T15:38:53.045Z,136.60
2018-11-25T15:41:22.941Z,124.80
2018-11-25T15:44:11.793Z,130.80
2018-11-25T15:46:41.821Z,143.93
2018-11-25T15:49:31.104Z,126.97
2018-11-25T15:52:01.139Z,158.47
2018-11-25T15:54:31.084Z,158.30
2018-11-25T15:57:01.157Z,132.93
2018-11-25T15:59:31.058Z,118.90
2018-11-25T16:02:01.034Z,131.17
2018-11-25T16:04:31.026Z,119.70
2018-11-25T16:07:00.899Z,122.73
2018-11-25T16:09:30.900Z,137.40
2018-11-25T16:12:00.804Z,112.03
2018-11-25T16:14:30.654Z,129.07
2018-11-25T16:17:00.536Z,128.67
2018-11-25T16:19:30.456Z,123.63
2018-11-25T16:22:19.370Z,121.67
2018-11-25T16:24:49.234Z,112.67
2018-11-25T16:27:19.181Z,122.57
2018-11-25T16:29:48.946Z,108.17
2018-11-25T16:32:19.437Z,130.33
2018-11-25T16:34:49.676Z,127.47
2018-11-25T16:37:19.566Z,126.67
2018-11-25T16:39:49.860Z,134.27
2018-11-25T16:42:20.243Z,115.77
2018-11-25T16:44:50.737Z,129.17
2018-11-25T16:47:20.634Z,137.30
2018-11-25T16:49:50.981Z,140.37
2018-11-25T16:52:21.474Z,134.03
2018-11-25T16:54:51.599Z,123.87
2018-11-25T16:57:22.234Z,120.90
2018-11-25T16:59:52.372Z,133.03
2018-11-25T17:02:22.285Z,131.53
2018-11-25T17:04:52.808Z,136.57
2018-11-25T17:07:22.659Z,152.23
2018-11-25T17:09:52.918Z,145.73
2018-11-25T17:12:23.811Z,139.13
2018-11-25T17:14:53.667Z,141.90
2018-11-25T17:17:23.741Z,160.73
2018-11-25T17:19:53.596Z,163.30
2018-11-25T17:22:23.542Z,154.30
2018-11-25T17:24:53.874Z,161.50
2018-11-25T17:27:24.256Z,163.40
2018-11-25T17:29:54.172Z,153.30
2018-11-25T17:32:25.160Z,176.03
2018-11-25T17:34:56.124Z,168.30
2018-11-25T17:37:26.526Z,164.33
2018-11-25T17:39:56.769Z,162.17
2018-11-25T17:42:27.296Z,150.47
2018-11-25T17:44:57.105Z,177.20
2018-11-25T17:47:27.073Z,166.93
2018-11-25T17:49:57.071Z,164.83
2018-11-25T17:52:27.046Z,173.93
2018-11-25T17:54:57.070Z,168.27
2018-11-25T17:57:26.906Z,166.07
2018-11-25T17:59:56.787Z,171.60
2018-11-25T18:02:26.718Z,161.03
2018-11-25T18:04:57.228Z,167.43
2018-11-25T18:07:27.096Z,184.77
2018-11-25T18:09:57.090Z,176.20
2018-11-25T18:12:26.952Z,165.73
2018-11-25T18:14:56.856Z,175.67
2018-11-25T18:17:26.720Z,170.50
2018-11-25T18:19:56.671Z,173.70
2018-11-25T18:22:47.949Z,145.70
2018-11-25T18:25:17.989Z,182.50
2018-11-25T18:27:48.242Z,158.50
2018-11-25T18:30:19.340Z,159.00
2018-11-25T18:32:49.176Z,165.10
2018-11-25T18:35:19.130Z,150.87
2018-11-25T18:37:49.122Z,150.33
2018-11-25T18:40:19.056Z,178.13
2018-11-25T18:42:49.332Z,169.93
2018-11-25T18:45:20.895Z,162.20
2018-11-25T18:47:52.066Z,167.70
2018-11-25T18:50:22.408Z,151.77
2018-11-25T18:52:53.998Z,156.13
2018-11-25T18:55:21.902Z,149.77
2018-11-25T18:57:51.800Z,172.13
2018-11-25T19:00:41.874Z,166.60
2018-11-25T19:03:12.511Z,156.00
2018-11-25T19:05:43.321Z,156.73
2018-11-25T19:08:13.520Z,174.40
2018-11-25T19:11:02.449Z,145.40
2018-11-25T19:13:32.279Z,176.20
2018-11-25T19:16:02.268Z,161.63
2018-11-25T19:18:32.231Z,165.67
2018-11-25T19:21:02.638Z,158.30
2018-11-25T19:23:32.696Z,157.57
2018-11-25T19:26:03.471Z,159.27
2018-11-25T19:28:33.441Z,147.47
2018-11-25T19:31:03.841Z,148.00
2018-11-25T19:33:33.716Z,147.53
2018-11-25T19:36:22.764Z,144.23
2018-11-25T19:38:52.638Z,135.23
2018-11-25T19:41:22.661Z,138.43
2018-11-25T19:43:53.454Z,135.73
2018-11-25T19:46:23.402Z,126.47
2018-11-25T19:48:53.824Z,138.67
2018-11-25T19:51:24.064Z,154.37
2018-11-25T19:53:54.062Z,139.10
2018-11-25T19:56:24.012Z,146.13
2018-11-25T19:58:59.900Z,128.17
2018-11-25T20:01:30.634Z,127.07
2018-11-25T20:04:00.664Z,140.50
2018-11-25T20:06:31.171Z,130.27
2018-11-25T20:09:01.285Z,122.33
2018-11-25T20:11:31.155Z,106.43
2018-11-25T20:14:01.822Z,117.97
2018-11-25T20:16:50.238Z,121.50
2018-11-25T20:19:20.094Z,108.23
2018-11-25T20:22:08.618Z,118.53
2018-11-25T20:24:38.609Z,128.37
2018-11-25T20:27:27.026Z,113.70
2018-11-25T20:29:57.644Z,114.47
2018-11-25T20:32:46.206Z,96.57
2018-11-25T20:35:15.993Z,106.73
2018-11-25T20:38:04.577Z,94.13
2018-11-25T20:40:35.090Z,88.50
2018-11-25T20:43:05.027Z,83.00
2018-11-25T20:45:53.783Z,83.73
2018-11-25T20:48:23.750Z,99.23
2018-11-25T20:50:53.801Z,103.30
2018-11-25T20:53:42.344Z,104.77
2018-11-25T20:56:12.278Z,95.60
2018-11-25T20:58:42.240Z,93.37
2018-11-25T21:01:12.131Z,74.77
2018-11-25T21:03:42.093Z,88.53
2018-11-25T21:06:12.431Z,109.43
2018-11-25T21:08:42.249Z,85.10
2018-11-25T21:11:12.312Z,89.80
2018-11-25T21:13:42.369Z,78.33
2018-11-25T21:16:12.707Z,80.27
2018-11-25T21:18:43.183Z,81.20
2018-11-25T21:21:13.488Z,100.93
2018-11-25T21:23:44.006Z,81.63
2018-11-25T21:26:13.951Z,77.63
2018-11-25T21:28:44.060Z,85.40
2018-11-25T21:31:14.511Z,90.90
2018-11-25T21:33:44.422Z,75.27
2018-11-25T21:36:14.265Z,79.43
2018-11-25T21:38:44.675Z,88.77
2018-11-25T21:41:14.621Z,74.10
2018-11-25T21:43:44.670Z,91.73
2018-11-25T21:46:14.669Z,77.10
2018-11-25T21:48:44.576Z,77.90
2018-11-25T21:51:14.754Z,89.03
2018-11-25T21:53:44.753Z,95.10
2018-11-25T21:56:14.664Z,93.80
2018-11-25T21:58:45.214Z,102.67
2018-11-25T22:01:15.126Z,93.03
2018-11-25T22:03:45.094Z,92.43
2018-11-25T22:06:15.153Z,89.17
2018-11-25T22:08:45.444Z,77.30
2018-11-25T22:11:15.680Z,87.33
2018-11-25T22:13:45.655Z,72.83
2018-11-25T22:16:15.576Z,70.47
2018-11-25T22:18:45.793Z,81.33
2018-11-25T22:21:15.679Z,72.47
2018-11-25T22:23:45.612Z,75.40
2018-11-25T22:26:15.462Z,78.17
2018-11-25T22:28:45.911Z,83.63
2018-11-25T22:31:15.698Z,71.10
2018-11-25T22:34:04.566Z,78.07
2018-11-25T22:36:34.377Z,74.03
2018-11-25T22:39:06.236Z,70.97
2018-11-25T22:41:55.184Z,79.70
2018-11-25T22:44:25.063Z,79.47
2018-11-25T22:46:55.106Z,82.60
2018-11-25T22:49:25.328Z,73.50
2018-11-25T22:51:55.204Z,84.27
2018-11-25T22:54:25.077Z,73.20
2018-11-25T22:56:55.225Z,68.83
2018-11-25T22:59:25.022Z,72.63
2018-11-25T23:01:54.899Z,74.93
2018-11-25T23:05:02.610Z,81.00
2018-11-25T23:07:32.553Z,74.93
2018-11-25T23:10:02.351Z,71.30
2018-11-25T23:12:32.194Z,72.77
2018-11-25T23:15:02.040Z,79.57
2018-11-25T23:17:31.899Z,70.70
2018-11-25T23:20:20.564Z,80.47
2018-11-25T23:22:50.439Z,72.37
2018-11-25T23:25:20.320Z,77.03
2018-11-25T23:27:50.182Z,74.50
2018-11-25T23:30:20.071Z,67.90
2018-11-25T23:32:49.912Z,68.03
2018-11-25T23:35:21.936Z,72.33
2018-11-25T23:37:51.860Z,74.33
2018-11-25T23:40:22.108Z,71.80
2018-11-25T23:42:51.926Z,71.50
2018-11-25T23:45:22.050Z,71.13
2018-11-25T23:47:51.940Z,74.77
2018-11-25T23:50:21.781Z,68.10
2018-11-25T23:52:51.682Z,72.70
2018-11-25T23:55:21.577Z,65.13
2018-11-25T23:57:51.512Z,63.50
